Time;durP1;ratioP1;P1;durP2;ratioP2;P2;SDS_P1;SDS_P2;PMS_P1;PMS_P2;Temp;Humidity;BMP_temperature;BMP_pressure;BME280_temperature;BME280_humidity;BME280_pressure;Samples;Min_cycle;Max_cycle;Signal;HPM_P1;HPM_P2
2022/09/30 00:01:48;;;;;;;;;;;;;;;;;;5071022;28;19925;-50
2022/09/30 00:04:15;;;;;;;;;;;;;;;;;;5054216;28;19951;-50
2022/09/30 00:06:42;;;;;;;;;;;;;;;;;;5054051;28;20393;-50
2022/09/30 00:09:10;;;;;;;;;;;;;;;;;;5053788;28;19936;-50
2022/09/30 00:11:37;;;;;;;;;;;;;;;;;;5054189;28;20396;-51
2022/09/30 00:14:05;;;;;;;;;;;;;;;;;;5053842;28;19925;-51
2022/09/30 00:16:33;;;;;;;;;;;;;;;;;;5053963;28;20084;-51
2022/09/30 00:19:00;;;;;;;;;;;;;;;;;;5053609;28;20312;-52
2022/09/30 00:21:28;;;;;;;;;;;;;;;;;;5053785;28;19979;-50
2022/09/30 00:23:55;;;;;;;;;;;;;;;;;;5053923;28;20436;-53
2022/09/30 00:26:22;;;;;;;;;;;;;;;;;;5053991;28;19925;-49
2022/09/30 00:28:50;;;;;;;;;;;;;;;;;;5053398;28;19925;-50
2022/09/30 00:31:18;;;;;;;;;;;;;;;;;;5053498;28;19925;-50
2022/09/30 00:34:05;;;;;;;;;;;;;;;;;;5053564;28;19925;-50
2022/09/30 00:36:31;;;;;;;;;;;;;;;;;;5053414;28;20385;-50
2022/09/30 00:38:58;;;;;;;;;;;;;;;;;;5052967;28;19928;-49
2022/09/30 00:41:26;;;;;;;;;;;;;;;;;;5053279;28;19925;-50
2022/09/30 00:43:53;;;;;;;;;;;;;;;;;;5053529;28;19925;-51
2022/09/30 00:46:25;;;;;;;;;;;;;;;;;;5053508;28;19928;-51
2022/09/30 00:48:52;;;;;;;;;;;;;;;;;;5052952;28;19924;-53
2022/09/30 00:51:28;;;;;;;;;;;;;;;;;;5053202;28;19929;-50
2022/09/30 00:53:57;;;;;;;;;;;;;;;;;;5053104;28;20298;-50
2022/09/30 00:56:26;;;;;;;;;;;;;;;;;;5053209;28;19925;-52
2022/09/30 00:58:54;;;;;;;;;;;;;;;;;;5052835;28;19925;-52
2022/09/30 01:01:22;;;;;;;;;;;;;;;;;;5052898;28;19970;-51
2022/09/30 01:03:52;;;;;;;;;;;;;;;;;;5033166;28;20401;-50
2022/09/30 01:06:19;;;;;;;;;;;;;;;;;;5032955;28;19931;-50
2022/09/30 01:08:46;;;;;;;;;;;;;;;;;;5032746;28;19979;-51
2022/09/30 01:11:13;;;;;;;;;;;;;;;;;;5033124;28;20562;-50
2022/09/30 01:13:41;;;;;;;;;;;;;;;;;;5032912;28;19929;-51
2022/09/30 01:16:19;;;;;;;;;;;;;;;;;;5033107;28;19972;-50
2022/09/30 01:18:54;;;;;;;;;;;;;;;;;;5032694;28;20356;-52
2022/09/30 01:21:32;;;;;;;;;;;;;;;;;;5032840;28;19925;-50
2022/09/30 01:24:12;;;;;;;;;;;;;;;;;;5032777;28;20007;-50
2022/09/30 01:26:45;;;;;;;;;;;;;;;;;;5032822;28;19925;-52
2022/09/30 01:29:36;;;;;;;;;;;;;;;;;;5032631;28;19983;-49
2022/09/30 01:32:10;;;;;;;;;;;;;;;;;;5017206;28;19979;-50
2022/09/30 01:34:42;;;;;;;;;;;;;;;;;;5032479;28;19929;-50
2022/09/30 01:37:11;;;;;;;;;;;;;;;;;;5032680;28;20020;-51
2022/09/30 01:39:47;;;;;;;;;;;;;;;;;;5032233;28;20402;-49
2022/09/30 01:42:18;;;;;;;;;;;;;;;;;;5032137;28;19929;-49
2022/09/30 01:44:48;;;;;;;;;;;;;;;;;;5032368;28;19961;-49
2022/09/30 01:47:19;;;;;;;;;;;;;;;;;;5032432;28;19986;-49
2022/09/30 01:49:49;;;;;;;;;;;;;;;;;;5032082;28;19925;-50
2022/09/30 01:52:16;;;;;;;;;;;;;;;;;;5032459;28;19987;-49
2022/09/30 01:54:46;;;;;;;;;;;;;;;;;;5032278;28;19925;-49
2022/09/30 01:57:17;;;;;;;;;;;;;;;;;;5032641;28;19925;-49
2022/09/30 01:59:46;;;;;;;;;;;;;;;;;;5032171;28;19976;-51
2022/09/30 02:02:16;;;;;;;;;;;;;;;;;;5038942;28;19925;-51
2022/09/30 02:04:46;;;;;;;;;;;;;;;;;;5052190;28;19925;-50
2022/09/30 02:07:16;;;;;;;;;;;;;;;;;;5052540;28;19932;-52
2022/09/30 02:09:45;;;;;;;;;;;;;;;;;;5052299;28;19925;-52
2022/09/30 02:12:15;;;;;;;;;;;;;;;;;;5052064;28;19983;-54
2022/09/30 02:14:44;;;;;;;;;;;;;;;;;;5052128;28;19925;-50
2022/09/30 02:17:13;;;;;;;;;;;;;;;;;;5052214;28;19987;-50
2022/09/30 02:19:41;;;;;;;;;;;;;;;;;;5051722;28;19979;-51
2022/09/30 02:22:12;;;;;;;;;;;;;;;;;;5052146;28;19928;-52
2022/09/30 02:24:39;;;;;;;;;;;;;;;;;;5051779;28;19975;-52
2022/09/30 02:27:10;;;;;;;;;;;;;;;;;;5052187;28;19924;-52
2022/09/30 02:29:39;;;;;;;;;;;;;;;;;;5052058;28;21003;-50
2022/09/30 02:32:10;;;;;;;;;;;;;;;;;;5051755;28;19924;-51
2022/09/30 02:34:39;;;;;;;;;;;;;;;;;;5052018;28;19925;-50
2022/09/30 02:37:07;;;;;;;;;;;;;;;;;;5051923;28;19932;-50
2022/09/30 02:39:37;;;;;;;;;;;;;;;;;;5051865;28;19924;-52
2022/09/30 02:42:07;;;;;;;;;;;;;;;;;;5051768;28;20348;-50
2022/09/30 02:44:34;;;;;;;;;;;;;;;;;;5051493;28;19925;-52
2022/09/30 02:47:09;;;;;;;;;;;;;;;;;;5051803;28;20052;-51
2022/09/30 02:49:38;;;;;;;;;;;;;;;;;;5051526;28;19925;-53
2022/09/30 02:52:11;;;;;;;;;;;;;;;;;;5051176;28;20397;-49
2022/09/30 02:54:45;;;;;;;;;;;;;;;;;;5052441;28;19999;-49
2022/09/30 02:57:17;;;;;;;;;;;;;;;;;;5055232;28;19979;-49
2022/09/30 02:59:45;;;;;;;;;;;;;;;;;;5055069;28;20404;-52
2022/09/30 03:02:11;;;;;;;;;;;;;;;;;;5048621;28;20405;-49
2022/09/30 03:04:40;;;;;;;;;;;;;;;;;;5035207;28;19925;-49
2022/09/30 03:07:06;;;;;;;;;;;;;;;;;;5035221;28;19932;-49
2022/09/30 03:09:34;;;;;;;;;;;;;;;;;;5034858;28;19925;-49
2022/09/30 03:12:06;;;;;;;;;;;;;;;;;;5035286;28;19929;-52
2022/09/30 03:14:40;;;;;;;;;;;;;;;;;;5034949;28;19971;-49
2022/09/30 03:17:19;;;;;;;;;;;;;;;;;;5035066;28;19925;-49
2022/09/30 03:20:03;;;;;;;;;;;;;;;;;;5035130;28;19929;-50
2022/09/30 03:22:46;;;;;;;;;;;;;;;;;;5034924;28;20543;-51
2022/09/30 03:25:19;;;;;;;;;;;;;;;;;;5034886;28;20549;-51
2022/09/30 03:27:54;;;;;;;;;;;;;;;;;;5035155;28;19925;-49
2022/09/30 03:30:25;;;;;;;;;;;;;;;;;;5034622;28;20275;-53
2022/09/30 03:33:07;;;;;;;;;;;;;;;;;;5034921;28;20351;-51
2022/09/30 03:35:38;;;;;;;;;;;;;;;;;;5032889;28;20306;-50
2022/09/30 03:38:11;;;;;;;;;;;;;;;;;;5034465;28;19979;-50
2022/09/30 03:40:41;;;;;;;;;;;;;;;;;;5034631;28;20375;-50
2022/09/30 03:43:12;;;;;;;;;;;;;;;;;;5034707;28;20387;-50
2022/09/30 03:45:41;;;;;;;;;;;;;;;;;;5034391;28;19924;-50
2022/09/30 03:48:10;;;;;;;;;;;;;;;;;;5034410;28;19925;-50
2022/09/30 03:50:38;;;;;;;;;;;;;;;;;;5034053;28;19925;-53
2022/09/30 03:53:08;;;;;;;;;;;;;;;;;;5034430;28;19925;-54
2022/09/30 03:55:43;;;;;;;;;;;;;;;;;;5034432;28;19925;-50
2022/09/30 03:58:11;;;;;;;;;;;;;;;;;;5034211;28;19979;-52
2022/09/30 04:00:38;;;;;;;;;;;;;;;;;;5033758;28;19987;-53
2022/09/30 04:03:04;;;;;;;;;;;;;;;;;;5047836;28;20355;-50
2022/09/30 04:05:31;;;;;;;;;;;;;;;;;;5053419;28;19986;-52
2022/09/30 04:07:57;;;;;;;;;;;;;;;;;;5054332;28;19979;-51
2022/09/30 04:10:24;;;;;;;;;;;;;;;;;;5053691;28;19925;-52
2022/09/30 04:12:53;;;;;;;;;;;;;;;;;;5054065;28;19924;-52
2022/09/30 04:15:21;;;;;;;;;;;;;;;;;;5053756;28;19971;-53
2022/09/30 04:17:47;;;;;;;;;;;;;;;;;;5053633;28;19976;-52
2022/09/30 04:20:14;;;;;;;;;;;;;;;;;;5053477;28;20422;-52
2022/09/30 04:22:40;;;;;;;;;;;;;;;;;;5053846;28;19970;-50
2022/09/30 04:25:07;;;;;;;;;;;;;;;;;;5053525;28;19924;-51
2022/09/30 04:27:34;;;;;;;;;;;;;;;;;;5053749;28;19929;-52
2022/09/30 04:30:01;;;;;;;;;;;;;;;;;;5053161;28;19929;-51
2022/09/30 04:32:29;;;;;;;;;;;;;;;;;;5053422;28;19986;-50
2022/09/30 04:34:55;;;;;;;;;;;;;;;;;;5053370;28;19932;-52
2022/09/30 04:37:23;;;;;;;;;;;;;;;;;;5053240;28;19991;-51
2022/09/30 04:39:49;;;;;;;;;;;;;;;;;;5053472;28;19994;-51
2022/09/30 04:42:17;;;;;;;;;;;;;;;;;;5053280;28;19936;-50
2022/09/30 04:44:43;;;;;;;;;;;;;;;;;;5053201;28;19960;-53
2022/09/30 04:47:10;;;;;;;;;;;;;;;;;;5053225;28;19974;-51
2022/09/30 04:49:38;;;;;;;;;;;;;;;;;;5052954;28;20014;-51
2022/09/30 04:52:04;;;;;;;;;;;;;;;;;;5053111;28;20393;-51
2022/09/30 04:54:31;;;;;;;;;;;;;;;;;;5053052;28;19925;-50
2022/09/30 04:56:57;;;;;;;;;;;;;;;;;;5053008;28;19925;-51
2022/09/30 04:59:24;;;;;;;;;;;;;;;;;;5052648;28;19978;-51
2022/09/30 05:01:50;;;;;;;;;;;;;;;;;;5049434;28;19925;-51
2022/09/30 05:04:17;;;;;;;;;;;;;;;;;;5033157;28;19991;-52
2022/09/30 05:06:45;;;;;;;;;;;;;;;;;;5033186;28;19979;-51
2022/09/30 05:09:11;;;;;;;;;;;;;;;;;;5032788;28;19925;-50
2022/09/30 05:11:41;;;;;;;;;;;;;;;;;;5033198;28;20364;-53
2022/09/30 05:14:08;;;;;;;;;;;;;;;;;;5032754;28;19951;-51
2022/09/30 05:16:35;;;;;;;;;;;;;;;;;;5032507;28;20401;-54
2022/09/30 05:19:01;;;;;;;;;;;;;;;;;;5032029;28;19980;-51
2022/09/30 05:21:29;;;;;;;;;;;;;;;;;;5032671;28;19925;-50
2022/09/30 05:23:57;;;;;;;;;;;;;;;;;;5033163;28;20279;-50
2022/09/30 05:26:23;;;;;;;;;;;;;;;;;;5032841;28;19929;-50
2022/09/30 05:28:50;;;;;;;;;;;;;;;;;;5032375;28;19936;-50
2022/09/30 05:31:16;;;;;;;;;;;;;;;;;;5032083;28;19979;-51
2022/09/30 05:33:43;;;;;;;;;;;;;;;;;;5032465;28;19929;-51
2022/09/30 05:36:12;;;;;;;;;;;;;;;;;;5057604;22;19948;-76
2022/09/30 05:38:39;;;;;;;;;;;;;;;;;;5051900;28;19925;-76
2022/09/30 05:41:10;;;;;;;;;;;;;;;;;;5052761;28;19929;-77
2022/09/30 05:43:37;;;;;;;;;;;;;;;;;;5053540;28;19986;-76
2022/09/30 05:46:03;;;;;;;;;;;;;;;;;;5053779;28;19955;-76
2022/09/30 05:48:29;;;;;;;;;;;;;;;;;;5053381;28;20357;-76
2022/09/30 05:50:57;;;;;;;;;;;;;;;;;;5053368;28;20015;-76
2022/09/30 05:53:24;;;;;;;;;;;;;;;;;;5053604;28;20351;-76
2022/09/30 05:55:50;;;;;;;;;;;;;;;;;;5053013;28;19929;-76
2022/09/30 05:58:18;;;;;;;;;;;;;;;;;;5053417;28;19929;-76
2022/09/30 06:00:46;;;;;;;;;;;;;;;;;;5053959;28;20250;-78
2022/09/30 06:03:12;;;;;;;;;;;;;;;;;;5052968;28;19972;-76
2022/09/30 06:05:39;;;;;;;;;;;;;;;;;;5054145;28;19925;-77
2022/09/30 06:08:13;;;;;;;;;;;;;;;;;;5053545;28;20015;-77
2022/09/30 06:10:40;;;;;;;;;;;;;;;;;;5052942;28;19931;-76
2022/09/30 06:13:07;;;;;;;;;;;;;;;;;;5052622;28;19936;-77
2022/09/30 06:15:35;;;;;;;;;;;;;;;;;;5053154;28;19947;-77
2022/09/30 06:18:02;;;;;;;;;;;;;;;;;;5052329;28;19959;-77
2022/09/30 06:20:28;;;;;;;;;;;;;;;;;;5053450;28;19925;-77
2022/09/30 06:22:55;;;;;;;;;;;;;;;;;;5052772;28;19935;-77
2022/09/30 06:25:22;;;;;;;;;;;;;;;;;;5052786;28;20015;-78
2022/09/30 06:27:49;;;;;;;;;;;;;;;;;;5052716;28;19932;-76
2022/09/30 06:30:15;;;;;;;;;;;;;;;;;;5055836;28;19925;-77
2022/09/30 06:32:44;;;;;;;;;;;;;;;;;;5057079;28;20295;-77
2022/09/30 06:35:11;;;;;;;;;;;;;;;;;;5056731;28;20327;-77
2022/09/30 06:37:37;;;;;;;;;;;;;;;;;;5056322;28;19935;-77
2022/09/30 06:40:04;;;;;;;;;;;;;;;;;;5055965;28;19924;-77
2022/09/30 06:42:30;;;;;;;;;;;;;;;;;;5056841;28;19925;-77
2022/09/30 06:44:57;;;;;;;;;;;;;;;;;;5056592;28;20430;-77
2022/09/30 06:47:23;;;;;;;;;;;;;;;;;;5055807;28;20392;-76
2022/09/30 06:49:51;;;;;;;;;;;;;;;;;;5055128;28;19925;-77
2022/09/30 06:52:18;;;;;;;;;;;;;;;;;;5056158;28;19979;-76
2022/09/30 06:54:45;;;;;;;;;;;;;;;;;;5056776;28;19983;-77
2022/09/30 06:57:12;;;;;;;;;;;;;;;;;;5056004;28;19931;-77
2022/09/30 06:59:38;;;;;;;;;;;;;;;;;;5055829;28;19925;-77
2022/09/30 07:02:05;;;;;;;;;;;;;;;;;;5050302;28;19925;-78
2022/09/30 07:04:31;;;;;;;;;;;;;;;;;;5036170;28;19983;-77
2022/09/30 07:06:59;;;;;;;;;;;;;;;;;;5036092;28;19964;-77
2022/09/30 07:09:25;;;;;;;;;;;;;;;;;;5035494;28;20011;-78
2022/09/30 07:11:52;;;;;;;;;;;;;;;;;;5035962;28;19947;-78
2022/09/30 07:14:18;;;;;;;;;;;;;;;;;;5035774;28;20016;-77
2022/09/30 07:16:45;;;;;;;;;;;;;;;;;;5035677;28;19948;-77
2022/09/30 07:19:11;;;;;;;;;;;;;;;;;;5035526;28;19935;-77
2022/09/30 07:21:38;;;;;;;;;;;;;;;;;;5036046;28;19980;-77
2022/09/30 07:24:06;;;;;;;;;;;;;;;;;;5036977;28;20016;-77
2022/09/30 07:26:32;;;;;;;;;;;;;;;;;;5036237;28;19947;-77
2022/09/30 07:28:59;;;;;;;;;;;;;;;;;;5035489;28;19972;-78
2022/09/30 07:31:27;;;;;;;;;;;;;;;;;;5035281;28;19948;-77
2022/09/30 07:33:55;;;;;;;;;;;;;;;;;;5035693;28;19983;-77
2022/09/30 07:36:26;;;;;;;;;;;;;;;;;;5035153;28;19952;-77
2022/09/30 07:38:53;;;;;;;;;;;;;;;;;;5034833;28;20380;-78
2022/09/30 07:41:25;;;;;;;;;;;;;;;;;;5034089;28;19925;-78
2022/09/30 07:43:52;;;;;;;;;;;;;;;;;;5035563;28;19934;-77
2022/09/30 07:46:21;;;;;;;;;;;;;;;;;;5036160;28;19925;-77
2022/09/30 07:48:50;;;;;;;;;;;;;;;;;;5045959;28;19983;-77
2022/09/30 07:51:18;;;;;;;;;;;;;;;;;;5057816;28;19925;-77
2022/09/30 07:53:55;;;;;;;;;;;;;;;;;;5070464;28;19919;-79
2022/09/30 07:56:23;;;;;;;;;;;;;;;;;;5060272;28;19924;-78
2022/09/30 07:58:53;;;;;;;;;;;;;;;;;;5057790;28;19929;-78
2022/09/30 08:01:19;;;;;;;;;;;;;;;;;;5055564;28;19932;-77
2022/09/30 08:03:46;;;;;;;;;;;;;;;;;;5053273;28;20427;-77
2022/09/30 08:06:14;;;;;;;;;;;;;;;;;;5052796;28;19983;-77
2022/09/30 08:08:42;;;;;;;;;;;;;;;;;;5050665;28;19925;-77
2022/09/30 08:11:09;;;;;;;;;;;;;;;;;;5052515;28;19932;-77
2022/09/30 08:13:37;;;;;;;;;;;;;;;;;;5052885;28;19978;-77
2022/09/30 08:16:04;;;;;;;;;;;;;;;;;;5052572;28;19924;-77
2022/09/30 08:18:31;;;;;;;;;;;;;;;;;;5051099;28;19979;-77
2022/09/30 08:21:01;;;;;;;;;;;;;;;;;;5052196;28;19935;-77
2022/09/30 08:23:28;;;;;;;;;;;;;;;;;;5051446;28;19936;-77
2022/09/30 08:25:59;;;;;;;;;;;;;;;;;;5051314;28;19929;-77
2022/09/30 08:28:26;;;;;;;;;;;;;;;;;;5051429;28;19925;-76
2022/09/30 08:30:54;;;;;;;;;;;;;;;;;;5051854;28;20012;-77
2022/09/30 08:33:20;;;;;;;;;;;;;;;;;;5051561;28;19947;-77
2022/09/30 08:35:47;;;;;;;;;;;;;;;;;;5051195;28;20418;-77
2022/09/30 08:38:13;;;;;;;;;;;;;;;;;;5050295;28;20398;-77
2022/09/30 08:40:48;;;;;;;;;;;;;;;;;;5040550;28;19925;-76
2022/09/30 08:43:26;;;;;;;;;;;;;;;;;;5051412;28;19925;-76
2022/09/30 08:45:59;;;;;;;;;;;;;;;;;;5051103;28;19925;-76
2022/09/30 08:48:32;;;;;;;;;;;;;;;;;;5050924;28;20070;-76
2022/09/30 08:51:04;;;;;;;;;;;;;;;;;;5050725;28;19925;-76
2022/09/30 08:53:33;;;;;;;;;;;;;;;;;;5051056;28;20297;-76
2022/09/30 08:56:01;;;;;;;;;;;;;;;;;;5050559;28;19925;-76
2022/09/30 08:58:29;;;;;;;;;;;;;;;;;;5050354;28;19931;-77
2022/09/30 09:00:57;;;;;;;;;;;;;;;;;;5050402;28;19925;-76
2022/09/30 09:03:26;;;;;;;;;;;;;;;;;;5050490;28;19925;-76
2022/09/30 09:05:56;;;;;;;;;;;;;;;;;;5050951;28;19960;-77
2022/09/30 09:08:26;;;;;;;;;;;;;;;;;;5050624;28;19936;-77
2022/09/30 09:10:56;;;;;;;;;;;;;;;;;;5050449;28;20395;-77
2022/09/30 09:13:32;;;;;;;;;;;;;;;;;;5050427;28;20016;-76
2022/09/30 09:16:03;;;;;;;;;;;;;;;;;;5050879;28;20074;-77
2022/09/30 09:18:44;;;;;;;;;;;;;;;;;;5050616;28;20018;-77
2022/09/30 09:21:20;;;;;;;;;;;;;;;;;;5050552;28;19925;-77
2022/09/30 09:23:49;;;;;;;;;;;;;;;;;;5049776;28;20443;-77
2022/09/30 09:26:15;;;;;;;;;;;;;;;;;;5051213;28;19928;-77
2022/09/30 09:28:45;;;;;;;;;;;;;;;;;;5051067;28;19925;-77
2022/09/30 09:31:15;;;;;;;;;;;;;;;;;;5051091;28;20354;-77
2022/09/30 09:33:42;;;;;;;;;;;;;;;;;;5050818;28;19929;-77
2022/09/30 09:36:18;;;;;;;;;;;;;;;;;;5050988;28;19929;-77
2022/09/30 09:38:52;;;;;;;;;;;;;;;;;;5053800;28;19925;-77
2022/09/30 09:41:24;;;;;;;;;;;;;;;;;;5051261;28;19928;-77
2022/09/30 09:43:57;;;;;;;;;;;;;;;;;;5050701;28;19947;-77
2022/09/30 09:46:26;;;;;;;;;;;;;;;;;;5050590;28;20355;-77
2022/09/30 09:49:11;;;;;;;;;;;;;;;;;;5049898;28;19931;-78
2022/09/30 09:51:40;;;;;;;;;;;;;;;;;;5040107;28;20480;-77
2022/09/30 09:54:09;;;;;;;;;;;;;;;;;;5050491;28;20003;-77
2022/09/30 09:56:36;;;;;;;;;;;;;;;;;;5050448;28;19925;-76
2022/09/30 09:59:11;;;;;;;;;;;;;;;;;;5050052;28;19925;-77
2022/09/30 10:01:40;;;;;;;;;;;;;;;;;;5050244;28;19924;-78
2022/09/30 10:04:09;;;;;;;;;;;;;;;;;;5051836;28;19924;-78
2022/09/30 10:06:42;;;;;;;;;;;;;;;;;;5054649;28;19931;-78
2022/09/30 10:09:21;;;;;;;;;;;;;;;;;;5054264;28;19929;-78
2022/09/30 10:11:48;;;;;;;;;;;;;;;;;;5054124;28;19925;-78
2022/09/30 10:14:17;;;;;;;;;;;;;;;;;;5054627;28;19943;-77
2022/09/30 10:16:48;;;;;;;;;;;;;;;;;;5054414;28;19925;-78
2022/09/30 10:19:20;;;;;;;;;;;;;;;;;;5053703;28;19924;-78
2022/09/30 10:21:46;;;;;;;;;;;;;;;;;;5053787;28;20386;-77
2022/09/30 10:24:20;;;;;;;;;;;;;;;;;;5054714;28;20296;-77
2022/09/30 10:26:46;;;;;;;;;;;;;;;;;;5054265;28;19929;-78
2022/09/30 10:29:25;;;;;;;;;;;;;;;;;;5054776;28;19924;-78
2022/09/30 10:31:53;;;;;;;;;;;;;;;;;;5054584;28;19968;-77
2022/09/30 10:34:25;;;;;;;;;;;;;;;;;;5054391;28;19968;-78
2022/09/30 10:36:51;;;;;;;;;;;;;;;;;;5054417;28;19946;-76
2022/09/30 10:39:22;;;;;;;;;;;;;;;;;;5053804;28;19931;-77
2022/09/30 10:41:48;;;;;;;;;;;;;;;;;;5053242;28;20430;-77
2022/09/30 10:44:16;;;;;;;;;;;;;;;;;;5053386;28;20412;-77
2022/09/30 10:46:44;;;;;;;;;;;;;;;;;;5053195;28;19948;-77
2022/09/30 10:49:33;;;;;;;;;;;;;;;;;;5053506;28;20008;-77
2022/09/30 10:52:01;;;;;;;;;;;;;;;;;;5053520;28;19925;-76
2022/09/30 10:54:52;;;;;;;;;;;;;;;;;;5054428;28;19925;-77
2022/09/30 10:57:21;;;;;;;;;;;;;;;;;;5044510;28;19928;-77
2022/09/30 10:59:48;;;;;;;;;;;;;;;;;;5064077;28;19925;-78
2022/09/30 11:02:26;;;;;;;;;;;;;;;;;;5080653;28;19968;-77
2022/09/30 11:04:57;;;;;;;;;;;;;;;;;;5081231;28;19912;-81
2022/09/30 11:07:29;;;;;;;;;;;;;;;;;;5067020;28;19932;-78
2022/09/30 11:09:58;;;;;;;;;;;;;;;;;;5058032;28;19925;-78
2022/09/30 11:12:30;;;;;;;;;;;;;;;;;;5058955;28;20020;-76
2022/09/30 11:15:00;;;;;;;;;;;;;;;;;;5052974;28;20022;-77
2022/09/30 11:17:29;;;;;;;;;;;;;;;;;;5057182;28;19970;-77
2022/09/30 11:20:01;;;;;;;;;;;;;;;;;;5054943;28;20087;-77
2022/09/30 11:22:32;;;;;;;;;;;;;;;;;;5053582;28;19924;-78
2022/09/30 11:24:59;;;;;;;;;;;;;;;;;;5053496;28;20020;-77
2022/09/30 11:27:30;;;;;;;;;;;;;;;;;;5055271;28;20448;-77
2022/09/30 11:30:02;;;;;;;;;;;;;;;;;;5056129;28;20015;-77
2022/09/30 11:32:38;;;;;;;;;;;;;;;;;;5055226;28;19932;-77
2022/09/30 11:35:12;;;;;;;;;;;;;;;;;;5055541;28;19925;-78
2022/09/30 11:37:49;;;;;;;;;;;;;;;;;;5051253;22;19987;-75
2022/09/30 11:40:27;;;;;;;;;;;;;;;;;;5031939;28;19931;-76
2022/09/30 11:42:55;;;;;;;;;;;;;;;;;;5032248;28;20306;-76
2022/09/30 11:45:28;;;;;;;;;;;;;;;;;;5032387;28;19925;-75
2022/09/30 11:48:03;;;;;;;;;;;;;;;;;;5032139;28;19929;-77
2022/09/30 11:50:33;;;;;;;;;;;;;;;;;;5032104;28;20032;-76
2022/09/30 11:53:05;;;;;;;;;;;;;;;;;;5032416;28;19933;-76
2022/09/30 11:55:40;;;;;;;;;;;;;;;;;;5032060;28;19925;-78
2022/09/30 11:58:08;;;;;;;;;;;;;;;;;;5032437;28;19991;-77
2022/09/30 12:00:36;;;;;;;;;;;;;;;;;;5031833;28;19932;-76
2022/09/30 12:03:07;;;;;;;;;;;;;;;;;;5045838;28;19928;-77
2022/09/30 12:05:37;;;;;;;;;;;;;;;;;;5052698;28;20016;-77
2022/09/30 12:08:11;;;;;;;;;;;;;;;;;;5053401;28;19929;-77
2022/09/30 12:10:40;;;;;;;;;;;;;;;;;;5052050;28;20559;-77
2022/09/30 12:13:11;;;;;;;;;;;;;;;;;;5052484;28;19925;-76
2022/09/30 12:15:38;;;;;;;;;;;;;;;;;;5050850;28;19976;-76
2022/09/30 12:18:08;;;;;;;;;;;;;;;;;;5051806;28;20020;-75
2022/09/30 12:20:38;;;;;;;;;;;;;;;;;;5051288;28;20307;-76
2022/09/30 12:23:10;;;;;;;;;;;;;;;;;;5052536;28;20390;-77
2022/09/30 12:25:39;;;;;;;;;;;;;;;;;;5052523;28;19924;-77
2022/09/30 12:30:49;;;;;;;;;;;;;;;;;;5051083;28;20372;-76
2022/09/30 12:33:28;;;;;;;;;;;;;;;;;;5051593;28;19925;-77
2022/09/30 12:36:11;;;;;;;;;;;;;;;;;;5051522;28;19984;-77
2022/09/30 12:38:49;;;;;;;;;;;;;;;;;;5050994;28;19979;-77
2022/09/30 12:41:23;;;;;;;;;;;;;;;;;;5051819;28;19929;-77
2022/09/30 12:44:07;;;;;;;;;;;;;;;;;;5052517;28;19951;-77
2022/09/30 12:46:49;;;;;;;;;;;;;;;;;;5052268;28;20192;-77
2022/09/30 12:49:18;;;;;;;;;;;;;;;;;;5052231;28;19960;-77
2022/09/30 12:51:48;;;;;;;;;;;;;;;;;;5052164;28;19994;-77
2022/09/30 12:54:18;;;;;;;;;;;;;;;;;;5051585;28;19924;-77
2022/09/30 12:56:45;;;;;;;;;;;;;;;;;;5051340;28;19931;-77
2022/09/30 12:59:13;;;;;;;;;;;;;;;;;;5051269;28;19924;-77
2022/09/30 13:01:40;;;;;;;;;;;;;;;;;;5048948;28;20384;-76
2022/09/30 13:04:16;;;;;;;;;;;;;;;;;;5031076;28;19932;-77
2022/09/30 13:07:01;;;;;;;;;;;;;;;;;;5030768;28;19932;-76
2022/09/30 13:09:31;;;;;;;;;;;;;;;;;;5031026;28;19932;-75
2022/09/30 13:12:15;;;;;;;;;;;;;;;;;;5030974;28;19932;-77
2022/09/30 13:14:42;;;;;;;;;;;;;;;;;;5031190;28;19925;-77
2022/09/30 13:17:27;;;;;;;;;;;;;;;;;;5030854;28;19931;-77
2022/09/30 13:19:56;;;;;;;;;;;;;;;;;;5031805;28;19925;-77
2022/09/30 13:22:55;;;;;;;;;;;;;;;;;;5031564;28;19979;-77
2022/09/30 13:25:23;;;;;;;;;;;;;;;;;;5031567;28;20351;-76
2022/09/30 13:27:52;;;;;;;;;;;;;;;;;;5030362;28;20406;-77
2022/09/30 13:30:31;;;;;;;;;;;;;;;;;;5030612;28;19948;-77
2022/09/30 13:33:05;;;;;;;;;;;;;;;;;;5030860;28;20287;-77
2022/09/30 13:35:32;;;;;;;;;;;;;;;;;;5031022;28;20012;-76
2022/09/30 13:38:10;;;;;;;;;;;;;;;;;;5030176;28;19929;-76
2022/09/30 13:40:40;;;;;;;;;;;;;;;;;;5031275;28;19931;-76
2022/09/30 13:43:10;;;;;;;;;;;;;;;;;;5031382;28;19932;-75
2022/09/30 13:45:38;;;;;;;;;;;;;;;;;;5031001;28;19925;-77
2022/09/30 13:48:11;;;;;;;;;;;;;;;;;;5030678;28;20409;-76
2022/09/30 13:50:41;;;;;;;;;;;;;;;;;;5030481;28;20387;-74
2022/09/30 13:53:12;;;;;;;;;;;;;;;;;;5031095;28;20019;-76
2022/09/30 13:55:44;;;;;;;;;;;;;;;;;;5031033;28;19931;-77
2022/09/30 13:58:19;;;;;;;;;;;;;;;;;;5030455;28;19925;-76
2022/09/30 14:00:54;;;;;;;;;;;;;;;;;;5030120;28;19925;-76
2022/09/30 14:03:34;;;;;;;;;;;;;;;;;;5030103;28;19936;-76
2022/09/30 14:06:05;;;;;;;;;;;;;;;;;;5030213;28;19931;-75
2022/09/30 14:08:51;;;;;;;;;;;;;;;;;;5033115;28;19925;-76
2022/09/30 14:11:32;;;;;;;;;;;;;;;;;;5030249;28;19931;-75
2022/09/30 14:14:07;;;;;;;;;;;;;;;;;;5017673;28;19931;-76
2022/09/30 14:16:44;;;;;;;;;;;;;;;;;;5030478;28;19929;-77
2022/09/30 14:19:32;;;;;;;;;;;;;;;;;;5030381;28;19925;-77
2022/09/30 14:22:02;;;;;;;;;;;;;;;;;;5024927;28;19947;-76
2022/09/30 14:24:29;;;;;;;;;;;;;;;;;;5030188;28;20403;-75
2022/09/30 14:27:05;;;;;;;;;;;;;;;;;;5029958;28;20474;-76
2022/09/30 14:29:39;;;;;;;;;;;;;;;;;;5030237;28;19941;-75
2022/09/30 14:32:10;;;;;;;;;;;;;;;;;;5029834;28;19947;-76
2022/09/30 14:34:37;;;;;;;;;;;;;;;;;;5030449;28;19926;-76
2022/09/30 14:37:04;;;;;;;;;;;;;;;;;;5029748;28;19929;-77
2022/09/30 14:39:31;;;;;;;;;;;;;;;;;;5030007;28;20453;-76
2022/09/30 14:42:00;;;;;;;;;;;;;;;;;;5030971;28;20311;-76
2022/09/30 14:44:28;;;;;;;;;;;;;;;;;;5031189;28;19925;-77
2022/09/30 14:47:00;;;;;;;;;;;;;;;;;;5044975;28;20035;-75
2022/09/30 14:49:31;;;;;;;;;;;;;;;;;;5050521;28;19925;-76
2022/09/30 14:51:59;;;;;;;;;;;;;;;;;;5053522;28;19925;-77
2022/09/30 14:54:27;;;;;;;;;;;;;;;;;;5053415;28;19929;-76
2022/09/30 14:56:54;;;;;;;;;;;;;;;;;;5053499;28;19929;-76
2022/09/30 14:59:23;;;;;;;;;;;;;;;;;;5053003;28;19935;-76
2022/09/30 15:01:54;;;;;;;;;;;;;;;;;;5053484;28;19929;-76
2022/09/30 15:04:24;;;;;;;;;;;;;;;;;;5053372;28;19947;-75
2022/09/30 15:06:51;;;;;;;;;;;;;;;;;;5053084;28;20281;-76
2022/09/30 15:09:18;;;;;;;;;;;;;;;;;;5052832;28;19931;-75
2022/09/30 15:11:45;;;;;;;;;;;;;;;;;;5052670;28;19929;-75
2022/09/30 15:14:16;;;;;;;;;;;;;;;;;;5053318;28;19929;-77
2022/09/30 15:16:47;;;;;;;;;;;;;;;;;;5053953;28;19979;-77
2022/09/30 15:19:17;;;;;;;;;;;;;;;;;;5053342;28;19928;-77
2022/09/30 15:21:47;;;;;;;;;;;;;;;;;;5052848;28;19935;-77
2022/09/30 15:24:13;;;;;;;;;;;;;;;;;;5053047;28;20025;-75
2022/09/30 15:26:42;;;;;;;;;;;;;;;;;;5052866;28;19929;-75
2022/09/30 15:29:09;;;;;;;;;;;;;;;;;;5052210;28;19932;-77
2022/09/30 15:31:41;;;;;;;;;;;;;;;;;;5052476;28;19925;-75
2022/09/30 15:34:14;;;;;;;;;;;;;;;;;;5052793;28;19925;-75
2022/09/30 15:36:41;;;;;;;;;;;;;;;;;;5052412;28;19979;-76
2022/09/30 15:39:19;;;;;;;;;;;;;;;;;;5052703;28;19925;-75
2022/09/30 15:41:46;;;;;;;;;;;;;;;;;;5052867;28;19925;-77
2022/09/30 15:44:15;;;;;;;;;;;;;;;;;;5053021;28;19931;-76
2022/09/30 15:46:59;;;;;;;;;;;;;;;;;;5052671;28;19931;-76
2022/09/30 15:49:35;;;;;;;;;;;;;;;;;;5052831;28;19955;-76
2022/09/30 15:52:21;;;;;;;;;;;;;;;;;;5052927;28;19924;-75
2022/09/30 15:54:49;;;;;;;;;;;;;;;;;;5053237;28;20024;-77
2022/09/30 15:57:39;;;;;;;;;;;;;;;;;;5052423;28;19928;-77
2022/09/30 16:00:07;;;;;;;;;;;;;;;;;;5052692;28;20499;-76
2022/09/30 16:02:34;;;;;;;;;;;;;;;;;;5052264;28;20299;-76
2022/09/30 16:05:02;;;;;;;;;;;;;;;;;;5059954;28;19931;-76
2022/09/30 16:07:29;;;;;;;;;;;;;;;;;;5057841;28;19952;-75
2022/09/30 16:09:58;;;;;;;;;;;;;;;;;;5057944;28;19936;-76
2022/09/30 16:12:27;;;;;;;;;;;;;;;;;;5056645;28;20442;-76
2022/09/30 16:14:54;;;;;;;;;;;;;;;;;;5054201;28;19931;-77
2022/09/30 16:17:22;;;;;;;;;;;;;;;;;;5052436;28;19994;-77
2022/09/30 16:19:56;;;;;;;;;;;;;;;;;;5052231;28;19924;-75
2022/09/30 16:22:36;;;;;;;;;;;;;;;;;;5053753;28;19931;-77
2022/09/30 16:25:11;;;;;;;;;;;;;;;;;;5051739;28;19929;-76
2022/09/30 16:27:37;;;;;;;;;;;;;;;;;;5055275;28;19925;-77
2022/09/30 16:30:05;;;;;;;;;;;;;;;;;;5053457;28;19948;-77
2022/09/30 16:32:32;;;;;;;;;;;;;;;;;;5052699;28;20019;-77
2022/09/30 16:34:59;;;;;;;;;;;;;;;;;;5052012;28;19947;-77
2022/09/30 16:37:25;;;;;;;;;;;;;;;;;;5051750;28;19979;-77
2022/09/30 16:39:52;;;;;;;;;;;;;;;;;;5053087;28;20004;-77
2022/09/30 16:42:19;;;;;;;;;;;;;;;;;;5052297;28;20100;-76
2022/09/30 16:44:46;;;;;;;;;;;;;;;;;;5052115;28;20383;-77
2022/09/30 16:47:14;;;;;;;;;;;;;;;;;;5052042;28;20438;-77
2022/09/30 16:49:42;;;;;;;;;;;;;;;;;;5051063;28;19925;-76
2022/09/30 16:52:08;;;;;;;;;;;;;;;;;;5051140;28;19925;-77
2022/09/30 16:54:35;;;;;;;;;;;;;;;;;;5051329;28;19978;-77
2022/09/30 16:57:01;;;;;;;;;;;;;;;;;;5051476;28;20071;-77
2022/09/30 16:59:31;;;;;;;;;;;;;;;;;;5051897;28;19925;-77
2022/09/30 17:01:58;;;;;;;;;;;;;;;;;;5047767;28;19925;-76
2022/09/30 17:04:25;;;;;;;;;;;;;;;;;;5032357;28;19926;-77
2022/09/30 17:06:52;;;;;;;;;;;;;;;;;;5031722;28;20016;-78
2022/09/30 17:09:18;;;;;;;;;;;;;;;;;;5031012;28;19994;-77